Aviation Digital Data Service (ADDS)

Output produced by METARs form (0630 UTC 05 March 2015)
found at http://aviationweather.gov/adds/metars/
 
KLCH 050523Z 0506/0606 23008KT P6SM VCSH OVC007 
     FM050700 34012KT P6SM VCSH OVC007 
     FM050900 36018G25KT P6SM VCSH OVC007 
     TEMPO 0509/0512 4SM SHRA 
     FM051200 01024G31KT 4SM RA BR OVC007 
     FM051800 02026G34KT P6SM VCSH OVC015 
     FM060000 01020G27KT P6SM SKC